createdAt,value
2022-10-23T00:04:52.618Z,13.34
2022-10-23T00:09:55.641Z,13.32
2022-10-23T00:14:58.717Z,13.32
2022-10-23T00:20:01.843Z,13.36
2022-10-23T00:25:07.401Z,13.33
2022-10-23T00:30:11.821Z,13.26
2022-10-23T00:35:15.034Z,13.21
2022-10-23T00:40:18.346Z,13.23
2022-10-23T00:45:27.192Z,13.22
2022-10-23T00:50:33.163Z,13.19
2022-10-23T00:55:38.723Z,13.15
2022-10-23T01:00:48.591Z,13.09
2022-10-23T01:06:08.900Z,13.11
2022-10-23T01:11:30.887Z,13.16
2022-10-23T01:16:52.794Z,13.15
2022-10-23T01:22:16.501Z,13.16
2022-10-23T01:27:41.292Z,13.13
2022-10-23T01:33:10.408Z,13.14
2022-10-23T01:38:33.383Z,13.15
2022-10-23T01:43:45.809Z,13.17
2022-10-23T01:48:53.973Z,13.18
2022-10-23T01:54:01.112Z,13.16
2022-10-23T01:59:11.203Z,13.14
2022-10-23T02:04:23.938Z,13.13
2022-10-23T02:09:27.658Z,13.14
2022-10-23T02:14:53.396Z,13.16
2022-10-23T02:20:17.389Z,13.19
2022-10-23T02:25:30.424Z,13.17
2022-10-23T02:30:37.828Z,13.17
2022-10-23T02:35:41.455Z,13.20
2022-10-23T02:40:47.225Z,13.26
2022-10-23T02:46:09.280Z,13.19
2022-10-23T02:51:21.388Z,13.15
2022-10-23T02:57:02.484Z,13.15
2022-10-23T03:02:25.602Z,13.16
2022-10-23T03:07:29.589Z,13.19
2022-10-23T03:12:32.793Z,13.19
2022-10-23T03:17:35.901Z,13.21
2022-10-23T03:22:40.347Z,13.26
2022-10-23T03:27:43.754Z,13.32
2022-10-23T03:32:46.755Z,13.31
2022-10-23T03:37:49.861Z,13.25
2022-10-23T03:42:52.984Z,13.24
2022-10-23T03:47:56.074Z,13.26
2022-10-23T03:52:59.395Z,13.29
2022-10-23T03:58:02.591Z,13.30
2022-10-23T04:03:05.819Z,13.26
2022-10-23T04:08:10.150Z,13.23
2022-10-23T04:13:13.244Z,13.21
2022-10-23T04:18:17.150Z,13.25
2022-10-23T04:23:20.997Z,13.28
2022-10-23T04:28:24.956Z,13.34
2022-10-23T04:33:29.251Z,13.31
2022-10-23T04:38:32.363Z,13.23
2022-10-23T04:43:35.874Z,13.16
2022-10-23T04:48:38.898Z,13.16
2022-10-23T04:53:41.877Z,13.12
2022-10-23T04:58:44.987Z,13.14
2022-10-23T05:03:48.195Z,13.14
2022-10-23T05:08:51.320Z,13.11
2022-10-23T05:13:54.320Z,13.01
2022-10-23T05:18:58.289Z,12.95
2022-10-23T05:24:02.340Z,12.93
2022-10-23T05:29:05.478Z,12.94
2022-10-23T05:34:11.279Z,12.96
2022-10-23T05:39:17.638Z,12.92
2022-10-23T05:44:21.438Z,12.91
2022-10-23T05:49:26.268Z,12.91
2022-10-23T05:54:29.288Z,12.93
2022-10-23T05:59:32.302Z,12.95
2022-10-23T06:04:36.327Z,12.96
2022-10-23T06:09:39.429Z,12.94
2022-10-23T06:14:42.436Z,12.96
2022-10-23T06:19:46.409Z,12.96
2022-10-23T06:24:49.393Z,13.00
2022-10-23T06:29:52.467Z,13.04
2022-10-23T06:34:55.576Z,13.02
2022-10-23T06:39:58.578Z,12.98
2022-10-23T06:45:04.848Z,13.01
2022-10-23T06:50:13.087Z,13.10
2022-10-23T06:55:19.746Z,13.16
2022-10-23T07:00:23.083Z,13.17
2022-10-23T07:05:26.106Z,13.17
2022-10-23T07:10:29.197Z,13.23
2022-10-23T07:15:32.613Z,13.28
2022-10-23T07:20:35.621Z,13.44
2022-10-23T07:25:38.620Z,13.61
2022-10-23T07:30:41.753Z,13.63
2022-10-23T07:35:46.466Z,13.57
2022-10-23T07:40:49.802Z,13.58
2022-10-23T07:45:54.255Z,13.61
2022-10-23T07:51:08.382Z,13.65
2022-10-23T07:56:18.566Z,13.68
2022-10-23T08:01:38.627Z,13.66
2022-10-23T08:06:41.968Z,13.64
2022-10-23T08:11:44.994Z,13.61
2022-10-23T08:16:48.434Z,13.60
2022-10-23T08:21:54.905Z,13.61
2022-10-23T08:26:58.898Z,13.58
2022-10-23T08:32:05.183Z,13.63
2022-10-23T08:37:08.184Z,13.69
2022-10-23T08:42:25.325Z,13.75
2022-10-23T08:47:44.703Z,13.87
2022-10-23T08:52:59.073Z,14.05
2022-10-23T08:58:11.103Z,14.17
2022-10-23T09:03:14.713Z,14.31
2022-10-23T09:08:44.545Z,14.39
2022-10-23T09:14:05.061Z,14.44
2022-10-23T09:19:17.830Z,14.42
2022-10-23T09:24:24.699Z,14.35
2022-10-23T09:29:36.171Z,14.28
2022-10-23T09:34:55.441Z,14.19
2022-10-23T09:40:34.221Z,14.11
2022-10-23T09:45:39.364Z,14.08
2022-10-23T09:50:53.633Z,14.11
2022-10-23T09:56:01.741Z,14.14
2022-10-23T10:01:05.978Z,14.11
2022-10-23T10:06:32.732Z,14.19
2022-10-23T10:11:44.266Z,14.34
2022-10-23T10:16:55.963Z,14.38
2022-10-23T10:22:36.247Z,14.37
2022-10-23T10:28:06.699Z,14.37
2022-10-23T10:33:31.915Z,14.50
2022-10-23T10:38:44.161Z,14.51
2022-10-23T10:44:09.406Z,14.43
2022-10-23T10:49:33.260Z,14.38
2022-10-23T10:55:14.142Z,14.27
2022-10-23T11:00:23.558Z,14.24
2022-10-23T11:05:34.280Z,14.20
2022-10-23T11:10:44.760Z,14.13
2022-10-23T11:15:48.457Z,13.99
2022-10-23T11:21:11.661Z,13.89
2022-10-23T11:26:36.786Z,13.94
2022-10-23T11:32:20.604Z,13.96
2022-10-23T11:37:27.032Z,14.00
2022-10-23T11:42:34.554Z,14.07
2022-10-23T11:47:42.838Z,14.15
2022-10-23T11:53:13.607Z,14.17
2022-10-23T11:58:33.825Z,14.25
2022-10-23T12:04:00.690Z,14.28
2022-10-23T12:09:22.334Z,14.36
2022-10-23T12:14:29.894Z,14.39
2022-10-23T12:19:50.639Z,14.31
2022-10-23T12:25:23.538Z,14.35
2022-10-23T12:30:51.318Z,14.42
2022-10-23T12:36:08.074Z,14.44
2022-10-23T12:41:18.690Z,14.45
2022-10-23T12:46:43.597Z,14.47
2022-10-23T12:52:14.633Z,14.51
2022-10-23T12:57:28.956Z,14.64
2022-10-23T13:02:33.286Z,14.67
2022-10-23T13:07:44.035Z,14.70
2022-10-23T13:13:05.947Z,14.76
2022-10-23T13:18:13.074Z,14.88
2022-10-23T13:23:35.121Z,14.98
2022-10-23T13:28:46.189Z,15.03
2022-10-23T13:34:19.257Z,15.01
2022-10-23T13:39:30.335Z,15.03
2022-10-23T13:44:33.323Z,15.01
2022-10-23T13:49:36.326Z,15.01
2022-10-23T13:54:39.326Z,14.99
2022-10-23T13:59:43.055Z,15.06
2022-10-23T14:04:47.460Z,15.03
2022-10-23T14:09:50.788Z,14.89
2022-10-23T14:14:54.209Z,14.84
2022-10-23T14:19:57.213Z,14.85
2022-10-23T14:25:00.357Z,14.87
2022-10-23T14:30:04.779Z,14.79
2022-10-23T14:35:08.607Z,14.75
2022-10-23T14:40:11.991Z,14.80
2022-10-23T14:45:15.047Z,14.80
2022-10-23T14:50:19.226Z,14.77
2022-10-23T14:55:22.436Z,14.75
2022-10-23T15:00:26.067Z,14.70
2022-10-23T15:05:29.157Z,14.61
2022-10-23T15:10:32.267Z,14.57
2022-10-23T15:15:35.377Z,14.58
2022-10-23T15:20:38.416Z,14.47
2022-10-23T15:25:42.305Z,14.38
2022-10-23T15:30:46.329Z,14.24
2022-10-23T15:35:50.433Z,14.06
2022-10-23T15:41:13.746Z,13.98
2022-10-23T15:46:16.745Z,13.95
2022-10-23T15:51:21.029Z,13.90
2022-10-23T15:56:25.863Z,13.82
2022-10-23T16:01:29.520Z,13.63
2022-10-23T16:06:32.957Z,13.48
2022-10-23T16:11:39.350Z,13.38
2022-10-23T16:16:42.864Z,13.31
2022-10-23T16:21:46.065Z,13.29
2022-10-23T16:26:53.342Z,13.19
2022-10-23T16:31:57.809Z,13.09
2022-10-23T16:37:00.933Z,13.02
2022-10-23T16:42:04.772Z,12.98
2022-10-23T16:47:07.956Z,12.91
2022-10-23T16:52:11.153Z,12.85
2022-10-23T16:57:14.272Z,12.73
2022-10-23T17:02:17.581Z,12.66
2022-10-23T17:12:25.418Z,12.55
2022-10-23T17:17:28.463Z,12.46
2022-10-23T17:22:31.844Z,12.38
2022-10-23T17:27:35.050Z,12.25
2022-10-23T17:32:38.262Z,12.13
2022-10-23T17:37:41.298Z,12.10
2022-10-23T17:42:44.692Z,12.05
2022-10-23T17:47:48.193Z,11.93
2022-10-23T17:52:51.600Z,11.82
2022-10-23T17:57:54.707Z,11.79
2022-10-23T18:02:57.822Z,11.73
2022-10-23T18:08:01.331Z,11.66
2022-10-23T18:13:04.435Z,11.67
2022-10-23T18:18:08.161Z,11.60
2022-10-23T18:23:11.468Z,11.50
2022-10-23T18:28:14.496Z,11.39
2022-10-23T18:33:18.705Z,11.38
2022-10-23T18:38:21.843Z,11.35
2022-10-23T18:43:42.450Z,11.22
2022-10-23T18:48:50.945Z,11.10
2022-10-23T18:53:55.106Z,11.07
2022-10-23T18:59:01.957Z,11.04
2022-10-23T19:04:06.578Z,11.01
2022-10-23T19:09:13.810Z,11.03
2022-10-23T19:14:18.365Z,11.04
2022-10-23T19:19:30.483Z,10.95
2022-10-23T19:24:51.141Z,10.81
2022-10-23T19:29:55.546Z,10.77
2022-10-23T19:35:01.390Z,10.77
2022-10-23T19:40:07.100Z,10.80
2022-10-23T19:45:14.821Z,10.88
2022-10-23T19:50:18.101Z,10.90
2022-10-23T19:55:21.206Z,10.92
2022-10-23T20:00:24.434Z,10.94
2022-10-23T20:05:27.830Z,10.95
2022-10-23T20:10:31.039Z,11.04
2022-10-23T20:15:38.223Z,11.15
2022-10-23T20:20:43.175Z,11.26
2022-10-23T20:25:46.202Z,11.31
2022-10-23T20:30:49.300Z,11.34
2022-10-23T20:35:53.053Z,11.38
2022-10-23T20:41:00.506Z,11.46
2022-10-23T20:46:06.270Z,11.55
2022-10-23T20:51:15.612Z,11.58
2022-10-23T20:56:32.446Z,11.61
2022-10-23T21:01:36.466Z,11.62
2022-10-23T21:06:57.484Z,11.70
2022-10-23T21:12:04.759Z,11.79
2022-10-23T21:17:09.171Z,11.89
2022-10-23T21:22:12.401Z,11.88
2022-10-23T21:27:15.592Z,11.77
2022-10-23T21:32:21.159Z,11.69
2022-10-23T21:37:25.798Z,11.71
2022-10-23T21:47:38.767Z,11.78
2022-10-23T21:52:42.267Z,11.78
2022-10-23T21:57:45.592Z,11.62
2022-10-23T22:02:49.134Z,11.56
2022-10-23T22:07:52.418Z,11.56
2022-10-23T22:12:55.522Z,11.59
2022-10-23T22:18:00.165Z,11.59
2022-10-23T22:23:03.183Z,11.67
2022-10-23T22:28:06.378Z,11.69
2022-10-23T22:33:09.392Z,11.62
2022-10-23T22:38:12.490Z,11.56
2022-10-23T22:43:15.496Z,11.54
2022-10-23T22:48:18.645Z,11.50
2022-10-23T22:53:21.703Z,11.49
2022-10-23T22:58:26.451Z,11.49
2022-10-23T23:03:29.630Z,11.49
2022-10-23T23:08:34.418Z,11.49
2022-10-23T23:13:37.406Z,11.48
2022-10-23T23:18:40.445Z,11.53
2022-10-23T23:23:43.720Z,11.57
2022-10-23T23:28:52.113Z,11.58
2022-10-23T23:33:55.869Z,11.58
2022-10-23T23:38:59.429Z,11.47
2022-10-23T23:44:02.495Z,11.42
2022-10-23T23:49:05.528Z,11.45
2022-10-23T23:54:08.809Z,11.47
2022-10-23T23:59:11.912Z,11.51
